createdAt,value
2023-11-25T00:01:11.133Z,0.84
2023-11-25T00:03:43.018Z,0.89
2023-11-25T00:06:16.092Z,1.03
2023-11-25T00:08:48.420Z,0.97
2023-11-25T00:11:28.134Z,0.95
2023-11-25T00:14:01.748Z,1.12
2023-11-25T00:16:33.635Z,1.03
2023-11-25T00:19:07.341Z,1.09
2023-11-25T00:21:39.296Z,0.95
2023-11-25T00:24:11.199Z,1.11
2023-11-25T00:26:44.106Z,1.08
2023-11-25T00:29:17.350Z,1.24
2023-11-25T00:31:50.529Z,1.04
2023-11-25T00:34:28.375Z,1.12
2023-11-25T00:37:02.626Z,0.87
2023-11-25T00:39:35.901Z,1.12
2023-11-25T00:42:07.811Z,1.09
2023-11-25T00:44:39.616Z,0.84
2023-11-25T00:47:14.792Z,1.10
2023-11-25T00:49:50.366Z,0.79
2023-11-25T00:52:22.277Z,0.93
2023-11-25T00:54:54.878Z,1.03
2023-11-25T00:57:27.639Z,1.09
2023-11-25T00:59:59.654Z,0.96
2023-11-25T01:02:32.247Z,0.91
2023-11-25T01:05:05.913Z,0.71
2023-11-25T01:07:38.736Z,0.82
2023-11-25T01:10:12.034Z,0.96
2023-11-25T01:12:43.903Z,0.71
2023-11-25T01:15:16.586Z,1.10
2023-11-25T01:17:48.428Z,1.11
2023-11-25T01:20:20.427Z,1.19
2023-11-25T01:22:52.540Z,1.12
2023-11-25T01:25:24.561Z,1.14
2023-11-25T01:27:56.518Z,1.07
2023-11-25T01:30:28.406Z,1.09
2023-11-25T01:33:07.877Z,1.08
2023-11-25T01:35:39.771Z,1.07
2023-11-25T01:38:11.552Z,1.09
2023-11-25T01:40:43.388Z,1.11
2023-11-25T01:43:15.815Z,1.15
2023-11-25T01:45:50.656Z,1.03
2023-11-25T01:48:23.464Z,1.11
2023-11-25T01:50:55.831Z,0.86
2023-11-25T01:53:28.597Z,0.92
2023-11-25T01:56:00.908Z,0.90
2023-11-25T01:58:33.619Z,0.78
2023-11-25T02:01:05.647Z,1.02
2023-11-25T02:03:37.608Z,1.07
2023-11-25T02:06:09.667Z,0.97
2023-11-25T02:08:44.381Z,1.08
2023-11-25T02:11:16.339Z,1.10
2023-11-25T02:13:48.167Z,1.06
2023-11-25T02:16:21.681Z,1.05
2023-11-25T02:18:53.604Z,0.95
2023-11-25T02:21:26.485Z,1.00
2023-11-25T02:23:58.253Z,0.84
2023-11-25T02:26:31.107Z,0.76
2023-11-25T02:29:02.907Z,0.77
2023-11-25T02:31:34.906Z,0.70
2023-11-25T02:34:11.325Z,0.90
2023-11-25T02:36:43.454Z,0.89
2023-11-25T02:39:16.160Z,0.73
2023-11-25T02:41:50.305Z,0.91
2023-11-25T02:44:22.730Z,0.96
2023-11-25T02:46:54.719Z,0.80
2023-11-25T02:49:27.297Z,0.84
2023-11-25T02:52:00.488Z,0.70
2023-11-25T02:54:32.309Z,0.70
2023-11-25T02:57:05.989Z,0.54
2023-11-25T02:59:38.720Z,0.76
2023-11-25T03:02:11.570Z,0.27
2023-11-25T03:04:46.943Z,0.38
2023-11-25T03:07:20.222Z,0.41
2023-11-25T03:09:52.127Z,0.31
2023-11-25T03:12:24.089Z,0.46
2023-11-25T03:14:55.966Z,0.46
2023-11-25T03:17:29.209Z,0.23
2023-11-25T03:20:01.042Z,0.21
2023-11-25T03:22:32.852Z,0.31
2023-11-25T03:25:06.508Z,0.43
2023-11-25T03:27:38.292Z,0.27
2023-11-25T03:30:13.157Z,0.43
2023-11-25T03:32:45.095Z,0.38
2023-11-25T03:35:17.726Z,0.22
2023-11-25T03:37:49.565Z,0.30
2023-11-25T03:40:21.540Z,0.36
2023-11-25T03:42:53.375Z,0.09
2023-11-25T03:45:25.258Z,0.30
2023-11-25T03:47:57.095Z,0.23
2023-11-25T03:50:28.971Z,0.21
2023-11-25T03:53:01.024Z,0.45
2023-11-25T03:55:34.043Z,0.19
2023-11-25T03:58:06.233Z,0.24
2023-11-25T04:00:38.219Z,0.35
2023-11-25T04:03:10.255Z,0.36
2023-11-25T04:05:42.073Z,0.27
2023-11-25T04:08:13.827Z,0.26
2023-11-25T04:10:45.645Z,0.28
2023-11-25T04:13:17.502Z,0.19
2023-11-25T04:15:49.277Z,0.29
2023-11-25T04:18:21.168Z,0.30
2023-11-25T04:20:54.240Z,0.40
2023-11-25T04:23:26.423Z,0.40
2023-11-25T04:25:58.390Z,0.39
2023-11-25T04:28:31.173Z,0.52
2023-11-25T04:31:04.019Z,0.36
2023-11-25T04:33:36.414Z,0.38
2023-11-25T04:36:09.045Z,0.30
2023-11-25T04:38:41.092Z,0.05
2023-11-25T04:41:13.058Z,0.43
2023-11-25T04:43:44.925Z,0.33
2023-11-25T04:46:17.322Z,0.44
2023-11-25T04:48:49.101Z,0.36
2023-11-25T04:51:25.133Z,0.35
2023-11-25T04:53:56.893Z,0.46
2023-11-25T04:56:28.681Z,0.40
2023-11-25T04:59:00.442Z,0.45
2023-11-25T05:01:32.292Z,0.44
2023-11-25T05:04:06.434Z,0.50
2023-11-25T05:06:38.269Z,0.41
2023-11-25T05:09:10.044Z,0.59
2023-11-25T05:11:41.818Z,0.34
2023-11-25T05:14:14.056Z,0.37
2023-11-25T05:16:45.889Z,0.39
2023-11-25T05:19:17.861Z,0.25
2023-11-25T05:21:50.543Z,0.37
2023-11-25T05:24:22.299Z,0.47
2023-11-25T05:26:54.723Z,0.26
2023-11-25T05:29:26.496Z,0.33
2023-11-25T05:31:58.626Z,0.44
2023-11-25T05:34:30.551Z,0.34
2023-11-25T05:37:02.322Z,0.27
2023-11-25T05:39:34.096Z,-0.10
2023-11-25T05:42:06.865Z,0.11
2023-11-25T05:44:38.659Z,0.41
2023-11-25T05:47:10.451Z,0.23
2023-11-25T05:49:42.605Z,0.25
2023-11-25T05:52:14.590Z,0.44
2023-11-25T05:54:46.551Z,0.32
2023-11-25T05:57:18.295Z,0.28
2023-11-25T05:59:50.045Z,0.05
2023-11-25T06:02:22.441Z,0.35
2023-11-25T06:04:54.467Z,0.14
2023-11-25T06:07:26.346Z,0.32
2023-11-25T06:09:58.106Z,0.39
2023-11-25T06:12:29.844Z,0.29
2023-11-25T06:15:01.940Z,0.30
2023-11-25T06:17:33.806Z,0.08
2023-11-25T06:20:06.291Z,-0.45
2023-11-25T06:22:38.784Z,0.16
2023-11-25T06:25:10.671Z,0.06
2023-11-25T06:27:44.568Z,0.18
2023-11-25T06:30:18.307Z,0.15
2023-11-25T06:32:50.088Z,0.00
2023-11-25T06:35:25.110Z,0.12
2023-11-25T06:37:56.946Z,0.19
2023-11-25T06:40:28.834Z,-0.02
2023-11-25T06:43:01.879Z,0.09
2023-11-25T06:45:35.236Z,0.27
2023-11-25T06:48:07.118Z,0.11
2023-11-25T06:50:39.337Z,0.20
2023-11-25T06:53:11.120Z,0.11
2023-11-25T06:55:42.970Z,0.27
2023-11-25T06:58:15.442Z,0.01
2023-11-25T07:00:47.348Z,0.15
2023-11-25T07:03:19.192Z,0.22
2023-11-25T07:05:50.982Z,0.06
2023-11-25T07:08:22.727Z,-0.26
2023-11-25T07:11:00.556Z,0.08
2023-11-25T07:13:33.614Z,0.09
2023-11-25T07:16:06.205Z,-0.03
2023-11-25T07:18:43.812Z,0.01
2023-11-25T07:21:15.912Z,-0.45
2023-11-25T07:23:47.685Z,0.06
2023-11-25T07:26:19.741Z,-0.01
2023-11-25T07:28:51.547Z,-0.06
2023-11-25T07:31:23.781Z,0.11
2023-11-25T07:33:55.856Z,-0.06
2023-11-25T07:36:27.713Z,-0.01
2023-11-25T07:38:59.599Z,0.08
2023-11-25T07:41:31.365Z,-0.11
2023-11-25T07:44:03.209Z,-0.01
2023-11-25T07:46:35.067Z,-0.05
2023-11-25T07:49:06.979Z,-0.05
2023-11-25T07:51:38.733Z,-0.01
2023-11-25T07:54:10.477Z,0.09
2023-11-25T07:56:42.371Z,-0.02
2023-11-25T07:59:14.721Z,0.07
2023-11-25T08:01:46.824Z,0.14
2023-11-25T08:04:18.777Z,0.12
2023-11-25T08:06:50.839Z,0.29
2023-11-25T08:09:22.628Z,0.10
2023-11-25T08:11:54.700Z,-0.25
2023-11-25T08:14:26.664Z,0.17
2023-11-25T08:16:58.473Z,0.14
2023-11-25T08:19:30.465Z,0.03
2023-11-25T08:22:02.252Z,0.29
2023-11-25T08:24:35.894Z,0.37
2023-11-25T08:27:07.638Z,0.35
2023-11-25T08:29:41.479Z,0.23
2023-11-25T08:32:14.615Z,0.07
2023-11-25T08:34:46.529Z,-0.18
2023-11-25T08:37:18.341Z,0.24
2023-11-25T08:39:50.108Z,0.25
2023-11-25T08:42:26.130Z,0.26
2023-11-25T08:44:57.885Z,0.24
2023-11-25T08:47:29.786Z,0.06
2023-11-25T08:50:01.689Z,0.26
2023-11-25T08:52:36.524Z,0.41
2023-11-25T08:55:10.886Z,0.51
2023-11-25T08:57:42.862Z,0.32
2023-11-25T09:00:21.664Z,0.41
2023-11-25T09:02:55.605Z,0.53
2023-11-25T09:05:29.506Z,0.27
2023-11-25T09:08:02.258Z,0.11
2023-11-25T09:10:36.223Z,0.33
2023-11-25T09:13:08.043Z,0.05
2023-11-25T09:15:42.130Z,0.55
2023-11-25T09:18:14.326Z,0.52
2023-11-25T09:20:46.790Z,0.76
2023-11-25T09:23:18.557Z,0.56
2023-11-25T09:25:50.380Z,0.61
2023-11-25T09:28:22.198Z,0.60
2023-11-25T09:30:54.033Z,0.27
2023-11-25T09:33:25.808Z,0.54
2023-11-25T09:35:57.621Z,0.58
2023-11-25T09:38:29.373Z,0.47
2023-11-25T09:41:01.430Z,0.40
2023-11-25T09:43:33.230Z,0.60
2023-11-25T09:46:05.469Z,0.63
2023-11-25T09:48:37.272Z,0.51
2023-11-25T09:51:09.776Z,0.51
2023-11-25T09:53:44.255Z,0.56
2023-11-25T09:56:18.242Z,0.82
2023-11-25T09:58:50.778Z,0.58
2023-11-25T10:01:24.139Z,0.39
2023-11-25T10:03:57.814Z,0.28
2023-11-25T10:06:32.383Z,0.46
2023-11-25T10:09:04.387Z,-0.12
2023-11-25T10:11:37.082Z,0.01
2023-11-25T10:14:11.346Z,0.06
2023-11-25T10:16:45.589Z,-0.01
2023-11-25T10:19:19.580Z,-0.10
2023-11-25T10:21:53.173Z,-0.09
2023-11-25T10:24:25.124Z,-0.28
2023-11-25T10:26:57.107Z,-0.22
2023-11-25T10:29:30.319Z,-0.27
2023-11-25T10:32:02.099Z,-0.31
2023-11-25T10:34:33.881Z,-0.29
2023-11-25T10:37:06.168Z,-0.32
2023-11-25T10:39:37.981Z,-0.16
2023-11-25T10:42:11.061Z,-0.15
2023-11-25T10:44:42.981Z,-0.34
2023-11-25T10:47:35.089Z,-0.16
2023-11-25T10:50:08.304Z,-0.27
2023-11-25T10:52:44.932Z,-0.14
2023-11-25T10:55:18.821Z,-0.34
2023-11-25T10:57:50.709Z,-0.45
2023-11-25T11:00:22.969Z,-0.30
2023-11-25T11:02:58.615Z,-0.49
2023-11-25T11:05:41.792Z,-0.57
2023-11-25T11:08:21.830Z,-0.46
2023-11-25T11:11:00.700Z,-0.16
2023-11-25T11:13:39.140Z,-0.40
2023-11-25T11:16:18.711Z,-0.27
2023-11-25T11:18:53.952Z,-0.28
2023-11-25T11:21:33.438Z,-0.36
2023-11-25T11:24:09.421Z,-0.43
2023-11-25T11:27:05.342Z,-0.34
2023-11-25T11:30:14.831Z,-0.28
2023-11-25T11:32:48.174Z,-0.47
2023-11-25T11:35:23.561Z,-0.41
2023-11-25T11:37:58.880Z,-0.37
2023-11-25T11:40:30.846Z,-0.04
2023-11-25T11:43:05.403Z,-0.18
2023-11-25T11:45:37.358Z,-0.25
2023-11-25T11:48:15.316Z,-0.39
2023-11-25T11:50:51.854Z,-0.14
2023-11-25T11:53:25.148Z,-0.31
2023-11-25T11:55:57.362Z,-0.38
2023-11-25T11:58:29.666Z,-0.30
2023-11-25T12:01:01.567Z,-0.22
2023-11-25T12:03:35.598Z,-0.39
2023-11-25T12:06:07.978Z,-0.51
2023-11-25T12:08:39.797Z,-0.25
2023-11-25T12:11:13.924Z,-0.28
2023-11-25T12:13:45.728Z,-0.77
2023-11-25T12:16:17.549Z,-0.44
2023-11-25T12:18:50.057Z,-0.44
2023-11-25T12:21:21.878Z,-0.57
2023-11-25T12:23:53.804Z,-0.39
2023-11-25T12:26:27.068Z,-0.50
2023-11-25T12:29:02.194Z,-0.37
2023-11-25T12:31:34.261Z,-0.32
2023-11-25T12:34:07.116Z,-0.53
2023-11-25T12:36:39.307Z,-0.33
2023-11-25T12:39:13.817Z,-0.61
2023-11-25T12:41:45.649Z,-0.26
2023-11-25T12:44:18.192Z,-0.27
2023-11-25T12:47:05.174Z,-0.31
2023-11-25T12:49:37.088Z,-0.51
2023-11-25T12:52:20.213Z,-0.56
2023-11-25T12:54:54.226Z,-0.44
2023-11-25T12:57:29.360Z,-0.21
2023-11-25T13:00:12.435Z,-0.25
2023-11-25T13:02:47.748Z,-0.27
2023-11-25T13:05:25.682Z,-0.16
2023-11-25T13:07:57.928Z,-0.21
2023-11-25T13:10:29.716Z,-0.31
2023-11-25T13:13:04.050Z,-0.23
2023-11-25T13:15:35.809Z,-0.17
2023-11-25T13:18:09.014Z,-0.25
2023-11-25T13:20:41.747Z,-0.10
2023-11-25T13:23:13.695Z,-0.23
2023-11-25T13:25:55.279Z,-0.14
2023-11-25T13:28:27.162Z,-0.21
2023-11-25T13:30:58.968Z,-0.17
2023-11-25T13:33:30.779Z,-0.14
2023-11-25T13:36:02.572Z,-0.09
2023-11-25T13:38:35.035Z,-0.04
2023-11-25T13:41:06.805Z,0.07
2023-11-25T13:43:38.679Z,0.16
2023-11-25T13:46:10.806Z,-0.12
2023-11-25T13:48:42.688Z,-0.11
2023-11-25T13:51:14.523Z,-0.32
2023-11-25T13:53:46.577Z,0.05
2023-11-25T13:56:18.327Z,-0.24
2023-11-25T13:58:50.108Z,-0.01
2023-11-25T14:01:22.499Z,-0.32
2023-11-25T14:03:57.715Z,-0.14
2023-11-25T14:06:31.542Z,0.01
2023-11-25T14:09:04.901Z,0.05
2023-11-25T14:11:36.656Z,-0.19
2023-11-25T14:14:09.189Z,-0.04
2023-11-25T14:16:41.268Z,-0.54
2023-11-25T14:19:13.843Z,-0.09
2023-11-25T14:21:45.602Z,-0.17
2023-11-25T14:24:18.232Z,-0.26
2023-11-25T14:26:50.032Z,-0.10
2023-11-25T14:29:21.800Z,-0.28
2023-11-25T14:31:53.607Z,-0.06
2023-11-25T14:34:25.920Z,0.04
2023-11-25T14:39:44.172Z,0.00
2023-11-25T14:42:19.567Z,0.01
2023-11-25T14:44:56.898Z,-0.01
2023-11-25T14:47:28.914Z,-0.07
2023-11-25T14:50:01.371Z,0.12
2023-11-25T14:52:35.831Z,-0.13
2023-11-25T14:55:09.788Z,-0.04
2023-11-25T14:57:41.620Z,0.12
2023-11-25T15:00:14.658Z,-0.19
2023-11-25T15:02:46.481Z,-0.04
2023-11-25T15:05:18.604Z,-0.09
2023-11-25T15:07:50.502Z,0.23
2023-11-25T15:10:26.888Z,0.03
2023-11-25T15:12:58.985Z,0.09
2023-11-25T15:15:30.868Z,0.05
2023-11-25T15:18:02.755Z,0.10
2023-11-25T15:20:35.262Z,0.16
2023-11-25T15:23:07.080Z,0.01
2023-11-25T15:25:38.868Z,-0.06
2023-11-25T15:28:17.177Z,-0.08
2023-11-25T15:30:49.287Z,0.11
2023-11-25T15:33:21.260Z,-0.05
2023-11-25T15:35:53.064Z,-0.25
2023-11-25T15:38:24.853Z,0.06
2023-11-25T15:40:56.864Z,0.13
2023-11-25T15:43:29.886Z,-0.22
2023-11-25T15:46:02.329Z,-0.22
2023-11-25T15:48:34.186Z,0.19
2023-11-25T15:51:08.062Z,0.03
2023-11-25T15:53:39.909Z,0.07
2023-11-25T15:56:12.012Z,0.15
2023-11-25T15:58:43.825Z,-0.55
2023-11-25T16:01:15.822Z,-0.07
2023-11-25T16:03:47.661Z,0.04
2023-11-25T16:06:19.427Z,0.06
2023-11-25T16:08:51.667Z,-0.06
2023-11-25T16:11:23.495Z,-0.21
2023-11-25T16:13:55.804Z,-0.01
2023-11-25T16:16:31.860Z,-0.18
2023-11-25T16:19:03.982Z,-0.03
2023-11-25T16:21:38.097Z,-0.05
2023-11-25T16:24:09.983Z,0.12
2023-11-25T16:26:42.475Z,0.06
2023-11-25T16:29:14.268Z,-0.29
2023-11-25T16:31:46.155Z,-0.05
2023-11-25T16:34:17.968Z,-0.12
2023-11-25T16:36:50.460Z,-0.04
2023-11-25T16:39:23.892Z,0.04
2023-11-25T16:41:55.879Z,0.02
2023-11-25T16:44:27.717Z,-0.01
2023-11-25T16:46:59.925Z,0.07
2023-11-25T16:49:40.938Z,-0.09
2023-11-25T16:52:14.026Z,0.10
2023-11-25T16:54:45.786Z,0.02
2023-11-25T16:57:17.817Z,-0.06
2023-11-25T16:59:49.686Z,-0.07
2023-11-25T17:02:24.218Z,-0.05
2023-11-25T17:04:56.216Z,0.06
2023-11-25T17:07:30.275Z,0.04
2023-11-25T17:10:05.302Z,-0.13
2023-11-25T17:12:37.165Z,-0.14
2023-11-25T17:15:09.217Z,0.04
2023-11-25T17:17:42.471Z,-0.01
2023-11-25T17:20:15.196Z,0.03
2023-11-25T17:22:47.119Z,0.06
2023-11-25T17:25:18.854Z,0.04
2023-11-25T17:27:50.644Z,-0.22
2023-11-25T17:30:22.418Z,0.06
2023-11-25T17:32:55.056Z,-0.14
2023-11-25T17:35:26.861Z,-0.19
2023-11-25T17:37:58.728Z,0.08
2023-11-25T17:40:30.527Z,-0.35
2023-11-25T17:43:02.302Z,-0.07
2023-11-25T17:45:34.148Z,-0.03
2023-11-25T17:48:06.600Z,-0.42
2023-11-25T17:50:38.894Z,-0.16
2023-11-25T17:53:14.581Z,-0.01
2023-11-25T17:55:46.934Z,-0.06
2023-11-25T17:58:18.706Z,0.12
2023-11-25T18:00:52.558Z,0.03
2023-11-25T18:03:25.495Z,-0.39
2023-11-25T18:05:57.677Z,-0.01
2023-11-25T18:08:30.204Z,0.08
2023-11-25T18:11:02.005Z,-0.10
2023-11-25T18:13:36.062Z,-0.05
2023-11-25T18:16:10.245Z,-0.04
2023-11-25T18:18:42.106Z,-0.10
2023-11-25T18:21:14.013Z,-0.24
2023-11-25T18:23:45.848Z,-0.10
2023-11-25T18:26:18.225Z,-0.15
2023-11-25T18:28:50.007Z,-0.87
2023-11-25T18:31:21.803Z,-0.44
2023-11-25T18:33:53.606Z,-0.47
2023-11-25T18:36:25.357Z,-0.73
2023-11-25T18:38:57.105Z,-0.48
2023-11-25T18:41:28.857Z,-0.64
2023-11-25T18:44:00.698Z,-0.66
2023-11-25T18:46:32.760Z,-0.71
2023-11-25T18:49:07.901Z,-0.61
2023-11-25T18:51:39.892Z,-0.70
2023-11-25T18:54:11.684Z,-0.88
2023-11-25T18:56:43.513Z,-1.09
2023-11-25T18:59:17.344Z,-1.13
2023-11-25T19:01:51.664Z,-0.86
2023-11-25T19:04:23.946Z,-0.78
2023-11-25T19:06:56.236Z,-0.83
2023-11-25T19:09:28.034Z,-0.88
2023-11-25T19:12:00.201Z,-0.87
2023-11-25T19:14:31.973Z,-0.73
2023-11-25T19:17:04.552Z,-0.95
2023-11-25T19:19:36.759Z,-0.82
2023-11-25T19:22:11.381Z,-0.73
2023-11-25T19:24:43.746Z,-0.99
2023-11-25T19:27:15.742Z,-0.85
2023-11-25T19:29:47.525Z,-0.80
2023-11-25T19:32:19.642Z,-0.77
2023-11-25T19:34:52.264Z,-0.68
2023-11-25T19:37:25.424Z,-0.78
2023-11-25T19:39:57.398Z,-0.64
2023-11-25T19:42:29.369Z,-0.85
2023-11-25T19:45:01.277Z,-0.60
2023-11-25T19:47:33.266Z,-0.63
2023-11-25T19:50:07.522Z,-0.58
2023-11-25T19:52:39.772Z,-0.55
2023-11-25T19:55:11.728Z,-0.81
2023-11-25T19:57:43.488Z,-0.66
2023-11-25T20:00:17.355Z,-0.58
2023-11-25T20:02:49.282Z,-0.63
2023-11-25T20:05:21.274Z,-0.86
2023-11-25T20:07:53.203Z,-0.91
2023-11-25T20:10:24.987Z,-0.83
2023-11-25T20:12:56.773Z,-1.13
2023-11-25T20:15:28.601Z,-1.24
2023-11-25T20:18:00.470Z,-0.78
2023-11-25T20:20:33.548Z,-0.75
2023-11-25T20:23:05.381Z,-0.73
2023-11-25T20:25:37.171Z,-0.86
2023-11-25T20:28:08.914Z,-0.95
2023-11-25T20:30:42.047Z,-0.81
2023-11-25T20:33:13.908Z,-0.69
2023-11-25T20:35:46.160Z,-0.64
2023-11-25T20:38:18.399Z,-0.59
2023-11-25T20:40:50.216Z,-0.48
2023-11-25T20:43:22.586Z,-0.56
2023-11-25T20:45:54.400Z,-0.58
2023-11-25T20:48:26.276Z,-0.58
2023-11-25T20:51:02.810Z,-0.66
2023-11-25T20:53:35.588Z,-0.71
2023-11-25T20:56:08.824Z,-0.59
2023-11-25T20:58:40.646Z,-0.81
2023-11-25T21:01:12.669Z,-0.61
2023-11-25T21:03:44.669Z,-0.52
2023-11-25T21:06:16.567Z,-0.64
2023-11-25T21:08:48.935Z,-0.54
2023-11-25T21:11:20.707Z,-0.40
2023-11-25T21:13:53.280Z,-0.61
2023-11-25T21:16:25.441Z,-0.39
2023-11-25T21:18:58.976Z,-0.43
2023-11-25T21:21:30.729Z,-0.42
2023-11-25T21:24:02.569Z,-0.45
2023-11-25T21:26:34.513Z,-0.51
2023-11-25T21:29:06.324Z,-0.66
2023-11-25T21:31:38.091Z,-0.67
2023-11-25T21:34:10.032Z,-0.76
2023-11-25T21:36:41.825Z,-0.70
2023-11-25T21:39:15.708Z,-0.58
2023-11-25T21:41:47.457Z,-0.44
2023-11-25T21:44:19.198Z,-0.39
2023-11-25T21:46:51.625Z,-0.71
2023-11-25T21:49:23.405Z,-0.61
2023-11-25T21:51:55.185Z,-0.65
2023-11-25T21:54:27.415Z,-0.39
2023-11-25T21:56:59.190Z,-0.38
2023-11-25T21:59:33.137Z,-0.34
2023-11-25T22:02:05.501Z,-0.37
2023-11-25T22:04:39.876Z,-0.41
2023-11-25T22:07:11.687Z,-0.40
2023-11-25T22:09:43.553Z,-0.43
2023-11-25T22:12:15.309Z,-0.32
2023-11-25T22:14:47.081Z,-0.44
2023-11-25T22:17:19.642Z,-0.36
2023-11-25T22:19:51.522Z,-0.37
2023-11-25T22:22:23.595Z,-0.78
2023-11-25T22:24:59.438Z,-0.76
2023-11-25T22:27:32.871Z,-0.81
2023-11-25T22:30:05.684Z,-0.61
2023-11-25T22:32:37.536Z,-0.73
2023-11-25T22:35:09.572Z,-0.74
2023-11-25T22:37:41.405Z,-0.58
2023-11-25T22:40:14.055Z,-0.86
2023-11-25T22:42:45.962Z,-0.60
2023-11-25T22:45:17.747Z,-0.79
2023-11-25T22:47:49.561Z,-0.60
2023-11-25T22:50:21.551Z,-0.61
2023-11-25T22:52:53.461Z,-0.49
2023-11-25T22:55:25.776Z,-0.46
2023-11-25T22:57:57.571Z,-0.66
2023-11-25T23:00:40.634Z,-0.53
2023-11-25T23:03:12.600Z,-0.61
2023-11-25T23:05:44.446Z,-0.77
2023-11-25T23:08:16.322Z,-0.85
2023-11-25T23:10:48.971Z,-0.75
2023-11-25T23:13:21.629Z,-0.61
2023-11-25T23:15:53.460Z,-0.93
2023-11-25T23:18:26.425Z,-0.75
2023-11-25T23:20:59.783Z,-1.17
2023-11-25T23:23:40.521Z,-0.77
2023-11-25T23:26:17.961Z,-1.03
2023-11-25T23:28:49.901Z,-0.89
2023-11-25T23:31:21.869Z,-1.11
2023-11-25T23:33:55.477Z,-0.78
2023-11-25T23:36:27.255Z,-0.80
2023-11-25T23:38:59.055Z,-1.09
2023-11-25T23:41:30.827Z,-1.14
2023-11-25T23:44:02.656Z,-0.84
2023-11-25T23:46:34.475Z,-0.88
2023-11-25T23:49:06.255Z,-0.80
2023-11-25T23:51:38.018Z,-1.26
2023-11-25T23:54:09.771Z,-0.92
2023-11-25T23:56:41.544Z,-1.11
2023-11-25T23:59:13.638Z,-1.37
